sensor_id;sensor_type;location;lat;lon;timestamp;P1;durP1;ratioP1;P2;durP2;ratioP2
20857;SDS011;10589;53.636;10.012;2023-08-12T03:45:42;4.40;;;2.78;;
20857;SDS011;10589;53.636;10.012;2023-08-12T03:48:08;3.35;;;2.83;;
20857;SDS011;10589;53.636;10.012;2023-08-12T03:50:34;5.53;;;2.58;;
20857;SDS011;10589;53.636;10.012;2023-08-12T03:53:00;3.58;;;3.00;;
20857;SDS011;10589;53.636;10.012;2023-08-12T03:55:26;3.83;;;2.80;;
20857;SDS011;10589;53.636;10.012;2023-08-12T03:57:52;3.53;;;2.65;;
20857;SDS011;10589;53.636;10.012;2023-08-12T04:00:17;3.80;;;3.03;;
20857;SDS011;10589;53.636;10.012;2023-08-12T04:02:43;3.17;;;2.88;;
20857;SDS011;10589;53.636;10.012;2023-08-12T04:05:08;4.10;;;2.45;;
20857;SDS011;10589;53.636;10.012;2023-08-12T04:07:35;4.82;;;2.97;;
20857;SDS011;10589;53.636;10.012;2023-08-12T04:10:01;3.42;;;3.13;;
20857;SDS011;10589;53.636;10.012;2023-08-12T04:12:27;3.55;;;2.90;;
20857;SDS011;10589;53.636;10.012;2023-08-12T04:14:53;3.53;;;2.92;;
20857;SDS011;10589;53.636;10.012;2023-08-12T04:17:19;3.60;;;3.30;;
20857;SDS011;10589;53.636;10.012;2023-08-12T04:19:44;5.93;;;3.83;;
20857;SDS011;10589;53.636;10.012;2023-08-12T04:22:10;6.78;;;4.30;;
20857;SDS011;10589;53.636;10.012;2023-08-12T04:24:35;3.67;;;3.00;;
20857;SDS011;10589;53.636;10.012;2023-08-12T04:27:01;5.63;;;3.38;;
20857;SDS011;10589;53.636;10.012;2023-08-12T04:29:27;3.40;;;3.10;;
20857;SDS011;10589;53.636;10.012;2023-08-12T04:31:52;3.50;;;3.20;;
20857;SDS011;10589;53.636;10.012;2023-08-12T04:34:18;4.68;;;2.95;;
20857;SDS011;10589;53.636;10.012;2023-08-12T04:36:44;6.03;;;3.55;;
20857;SDS011;10589;53.636;10.012;2023-08-12T04:39:09;4.38;;;3.28;;
20857;SDS011;10589;53.636;10.012;2023-08-12T04:41:35;5.15;;;3.53;;
20857;SDS011;10589;53.636;10.012;2023-08-12T04:44:03;5.55;;;3.70;;
20857;SDS011;10589;53.636;10.012;2023-08-12T04:46:29;3.67;;;3.38;;
20857;SDS011;10589;53.636;10.012;2023-08-12T04:48:55;2.97;;;2.70;;
20857;SDS011;10589;53.636;10.012;2023-08-12T04:51:20;3.72;;;3.03;;
20857;SDS011;10589;53.636;10.012;2023-08-12T04:53:46;3.58;;;2.95;;
20857;SDS011;10589;53.636;10.012;2023-08-12T04:56:12;3.20;;;2.90;;
20857;SDS011;10589;53.636;10.012;2023-08-12T04:58:37;3.63;;;3.20;;
20857;SDS011;10589;53.636;10.012;2023-08-12T05:01:03;7.68;;;3.03;;
20857;SDS011;10589;53.636;10.012;2023-08-12T05:03:29;3.40;;;3.10;;
20857;SDS011;10589;53.636;10.012;2023-08-12T05:05:54;4.00;;;3.60;;
20857;SDS011;10589;53.636;10.012;2023-08-12T05:08:20;6.72;;;3.50;;
20857;SDS011;10589;53.636;10.012;2023-08-12T05:10:49;6.90;;;3.53;;
20857;SDS011;10589;53.636;10.012;2023-08-12T05:13:15;4.15;;;3.35;;
20857;SDS011;10589;53.636;10.012;2023-08-12T05:15:41;4.03;;;3.28;;
20857;SDS011;10589;53.636;10.012;2023-08-12T05:18:09;5.38;;;3.30;;
20857;SDS011;10589;53.636;10.012;2023-08-12T05:20:35;3.30;;;2.83;;
20857;SDS011;10589;53.636;10.012;2023-08-12T05:23:00;4.07;;;3.00;;
20857;SDS011;10589;53.636;10.012;2023-08-12T05:25:26;5.05;;;3.33;;
20857;SDS011;10589;53.636;10.012;2023-08-12T05:27:52;4.28;;;3.28;;
20857;SDS011;10589;53.636;10.012;2023-08-12T05:30:17;4.72;;;2.97;;
20857;SDS011;10589;53.636;10.012;2023-08-12T05:32:43;4.30;;;2.83;;
20857;SDS011;10589;53.636;10.012;2023-08-12T05:35:08;4.30;;;2.85;;
20857;SDS011;10589;53.636;10.012;2023-08-12T05:37:34;6.45;;;3.63;;
20857;SDS011;10589;53.636;10.012;2023-08-12T05:40:00;3.50;;;2.83;;
20857;SDS011;10589;53.636;10.012;2023-08-12T05:42:26;6.18;;;3.58;;
20857;SDS011;10589;53.636;10.012;2023-08-12T05:44:51;3.55;;;3.22;;
20857;SDS011;10589;53.636;10.012;2023-08-12T05:47:17;3.03;;;2.80;;
20857;SDS011;10589;53.636;10.012;2023-08-12T05:49:43;3.63;;;3.25;;
20857;SDS011;10589;53.636;10.012;2023-08-12T05:52:08;8.88;;;4.45;;
20857;SDS011;10589;53.636;10.012;2023-08-12T05:54:34;4.07;;;3.42;;
20857;SDS011;10589;53.636;10.012;2023-08-12T05:56:59;4.97;;;4.20;;
20857;SDS011;10589;53.636;10.012;2023-08-12T05:59:25;7.00;;;3.80;;
20857;SDS011;10589;53.636;10.012;2023-08-12T06:01:51;4.13;;;3.70;;
20857;SDS011;10589;53.636;10.012;2023-08-12T06:04:16;5.97;;;3.80;;
20857;SDS011;10589;53.636;10.012;2023-08-12T06:06:42;4.28;;;3.53;;
20857;SDS011;10589;53.636;10.012;2023-08-12T06:09:07;6.32;;;4.18;;
20857;SDS011;10589;53.636;10.012;2023-08-12T06:11:33;4.65;;;3.95;;
20857;SDS011;10589;53.636;10.012;2023-08-12T06:13:58;4.13;;;3.72;;
20857;SDS011;10589;53.636;10.012;2023-08-12T06:16:24;6.75;;;4.68;;
20857;SDS011;10589;53.636;10.012;2023-08-12T06:18:50;6.38;;;4.38;;
20857;SDS011;10589;53.636;10.012;2023-08-12T06:21:15;5.20;;;4.47;;
20857;SDS011;10589;53.636;10.012;2023-08-12T06:23:41;5.38;;;4.78;;
20857;SDS011;10589;53.636;10.012;2023-08-12T06:26:06;6.85;;;4.53;;
20857;SDS011;10589;53.636;10.012;2023-08-12T06:28:32;6.82;;;4.55;;
20857;SDS011;10589;53.636;10.012;2023-08-12T06:30:58;5.20;;;4.70;;
20857;SDS011;10589;53.636;10.012;2023-08-12T06:33:23;5.45;;;4.72;;
20857;SDS011;10589;53.636;10.012;2023-08-12T06:35:49;6.45;;;5.00;;
20857;SDS011;10589;53.636;10.012;2023-08-12T06:38:16;9.85;;;7.07;;
20857;SDS011;10589;53.636;10.012;2023-08-12T06:40:41;5.80;;;5.07;;
20857;SDS011;10589;53.636;10.012;2023-08-12T06:43:07;5.85;;;4.93;;
20857;SDS011;10589;53.636;10.012;2023-08-12T06:45:33;6.32;;;4.50;;
20857;SDS011;10589;53.636;10.012;2023-08-12T06:47:59;5.97;;;5.22;;
20857;SDS011;10589;53.636;10.012;2023-08-12T06:50:27;5.10;;;4.35;;
20857;SDS011;10589;53.636;10.012;2023-08-12T06:52:52;11.60;;;6.38;;
20857;SDS011;10589;53.636;10.012;2023-08-12T06:55:18;8.80;;;6.72;;
20857;SDS011;10589;53.636;10.012;2023-08-12T06:57:44;8.20;;;6.88;;
20857;SDS011;10589;53.636;10.012;2023-08-12T07:00:10;8.95;;;7.50;;
20857;SDS011;10589;53.636;10.012;2023-08-12T07:02:36;9.15;;;6.80;;
20857;SDS011;10589;53.636;10.012;2023-08-12T07:05:02;8.43;;;6.43;;
20857;SDS011;10589;53.636;10.012;2023-08-12T07:07:27;7.55;;;6.85;;
20857;SDS011;10589;53.636;10.012;2023-08-12T07:09:53;8.45;;;5.45;;
20857;SDS011;10589;53.636;10.012;2023-08-12T07:12:19;8.88;;;7.45;;
20857;SDS011;10589;53.636;10.012;2023-08-12T07:14:44;11.40;;;7.70;;
20857;SDS011;10589;53.636;10.012;2023-08-12T07:17:10;8.45;;;6.70;;
20857;SDS011;10589;53.636;10.012;2023-08-12T07:19:35;8.13;;;7.32;;
20857;SDS011;10589;53.636;10.012;2023-08-12T07:22:01;9.30;;;7.47;;
20857;SDS011;10589;53.636;10.012;2023-08-12T07:24:27;10.52;;;7.63;;
20857;SDS011;10589;53.636;10.012;2023-08-12T07:26:52;8.48;;;7.57;;
20857;SDS011;10589;53.636;10.012;2023-08-12T07:29:18;8.73;;;7.72;;
20857;SDS011;10589;53.636;10.012;2023-08-12T07:31:43;9.02;;;6.95;;
20857;SDS011;10589;53.636;10.012;2023-08-12T07:34:09;8.00;;;7.00;;
20857;SDS011;10589;53.636;10.012;2023-08-12T07:36:38;9.48;;;7.57;;
20857;SDS011;10589;53.636;10.012;2023-08-12T07:39:05;10.32;;;7.63;;
20857;SDS011;10589;53.636;10.012;2023-08-12T07:41:31;9.57;;;6.65;;
20857;SDS011;10589;53.636;10.012;2023-08-12T07:43:57;7.15;;;6.00;;
20857;SDS011;10589;53.636;10.012;2023-08-12T07:46:22;10.75;;;6.80;;
20857;SDS011;10589;53.636;10.012;2023-08-12T07:48:48;6.38;;;5.78;;
20857;SDS011;10589;53.636;10.012;2023-08-12T07:51:14;10.77;;;7.85;;
20857;SDS011;10589;53.636;10.012;2023-08-12T07:53:39;9.45;;;7.13;;
20857;SDS011;10589;53.636;10.012;2023-08-12T07:56:05;8.73;;;7.90;;
20857;SDS011;10589;53.636;10.012;2023-08-12T07:58:31;8.63;;;5.78;;
20857;SDS011;10589;53.636;10.012;2023-08-12T08:00:56;9.32;;;6.95;;
20857;SDS011;10589;53.636;10.012;2023-08-12T08:03:22;8.23;;;6.93;;
20857;SDS011;10589;53.636;10.012;2023-08-12T08:05:47;7.00;;;6.30;;
20857;SDS011;10589;53.636;10.012;2023-08-12T08:08:13;9.40;;;6.03;;
20857;SDS011;10589;53.636;10.012;2023-08-12T08:10:39;6.43;;;5.22;;
20857;SDS011;10589;53.636;10.012;2023-08-12T08:13:04;6.13;;;5.53;;
20857;SDS011;10589;53.636;10.012;2023-08-12T08:15:30;5.97;;;4.30;;
20857;SDS011;10589;53.636;10.012;2023-08-12T08:17:56;8.27;;;6.22;;
20857;SDS011;10589;53.636;10.012;2023-08-12T08:20:21;6.90;;;5.88;;
20857;SDS011;10589;53.636;10.012;2023-08-12T08:22:47;7.80;;;5.30;;
20857;SDS011;10589;53.636;10.012;2023-08-12T08:25:12;10.30;;;5.22;;
20857;SDS011;10589;53.636;10.012;2023-08-12T08:27:38;5.47;;;4.80;;
20857;SDS011;10589;53.636;10.012;2023-08-12T08:30:04;4.82;;;4.28;;
20857;SDS011;10589;53.636;10.012;2023-08-12T08:32:31;9.18;;;5.97;;
20857;SDS011;10589;53.636;10.012;2023-08-12T08:34:56;8.05;;;5.75;;
20857;SDS011;10589;53.636;10.012;2023-08-12T08:37:22;6.72;;;5.30;;
20857;SDS011;10589;53.636;10.012;2023-08-12T08:39:48;5.40;;;4.90;;
20857;SDS011;10589;53.636;10.012;2023-08-12T08:42:13;5.95;;;5.03;;
20857;SDS011;10589;53.636;10.012;2023-08-12T08:44:41;5.95;;;5.32;;
20857;SDS011;10589;53.636;10.012;2023-08-12T08:47:08;4.35;;;3.90;;
20857;SDS011;10589;53.636;10.012;2023-08-12T08:49:34;6.10;;;3.83;;
20857;SDS011;10589;53.636;10.012;2023-08-12T08:52:01;5.30;;;3.85;;
20857;SDS011;10589;53.636;10.012;2023-08-12T08:54:27;8.25;;;5.90;;
20857;SDS011;10589;53.636;10.012;2023-08-12T08:56:53;6.85;;;4.95;;
20857;SDS011;10589;53.636;10.012;2023-08-12T08:59:19;7.78;;;5.82;;
20857;SDS011;10589;53.636;10.012;2023-08-12T09:01:46;4.38;;;3.97;;
20857;SDS011;10589;53.636;10.012;2023-08-12T09:04:16;6.22;;;5.22;;
20857;SDS011;10589;53.636;10.012;2023-08-12T09:06:43;8.10;;;4.57;;
20857;SDS011;10589;53.636;10.012;2023-08-12T09:09:10;6.00;;;4.68;;
20857;SDS011;10589;53.636;10.012;2023-08-12T09:11:39;4.95;;;4.30;;
20857;SDS011;10589;53.636;10.012;2023-08-12T09:14:09;7.20;;;4.93;;
20857;SDS011;10589;53.636;10.012;2023-08-12T09:16:35;4.90;;;4.40;;
20857;SDS011;10589;53.636;10.012;2023-08-12T09:19:01;4.88;;;3.83;;
20857;SDS011;10589;53.636;10.012;2023-08-12T09:21:26;4.03;;;3.47;;
20857;SDS011;10589;53.636;10.012;2023-08-12T09:23:52;5.53;;;4.22;;
20857;SDS011;10589;53.636;10.012;2023-08-12T09:26:19;4.15;;;3.63;;
20857;SDS011;10589;53.636;10.012;2023-08-12T09:28:46;5.20;;;3.78;;
20857;SDS011;10589;53.636;10.012;2023-08-12T09:31:22;4.53;;;3.92;;
20857;SDS011;10589;53.636;10.012;2023-08-12T09:33:49;9.35;;;4.90;;
20857;SDS011;10589;53.636;10.012;2023-08-12T09:36:15;7.80;;;4.90;;
20857;SDS011;10589;53.636;10.012;2023-08-12T09:38:42;8.05;;;5.15;;
20857;SDS011;10589;53.636;10.012;2023-08-12T09:41:08;4.88;;;4.32;;
20857;SDS011;10589;53.636;10.012;2023-08-12T09:43:34;6.57;;;4.45;;
20857;SDS011;10589;53.636;10.012;2023-08-12T09:45:59;5.82;;;5.13;;
20857;SDS011;10589;53.636;10.012;2023-08-12T09:48:25;4.65;;;3.97;;
20857;SDS011;10589;53.636;10.012;2023-08-12T09:50:52;5.72;;;4.25;;
20857;SDS011;10589;53.636;10.012;2023-08-12T09:53:19;6.93;;;5.15;;
20857;SDS011;10589;53.636;10.012;2023-08-12T09:55:45;7.43;;;4.32;;
20857;SDS011;10589;53.636;10.012;2023-08-12T09:58:12;5.57;;;5.07;;
20857;SDS011;10589;53.636;10.012;2023-08-12T10:00:43;5.72;;;5.15;;
20857;SDS011;10589;53.636;10.012;2023-08-12T10:03:10;7.75;;;5.55;;
20857;SDS011;10589;53.636;10.012;2023-08-12T10:05:39;7.72;;;6.35;;
20857;SDS011;10589;53.636;10.012;2023-08-12T10:08:05;6.30;;;4.93;;
20857;SDS011;10589;53.636;10.012;2023-08-12T10:10:32;5.85;;;5.22;;
20857;SDS011;10589;53.636;10.012;2023-08-12T10:13:00;8.43;;;6.72;;
20857;SDS011;10589;53.636;10.012;2023-08-12T10:15:26;6.78;;;5.25;;
20857;SDS011;10589;53.636;10.012;2023-08-12T10:17:52;4.80;;;4.03;;
20857;SDS011;10589;53.636;10.012;2023-08-12T10:20:22;5.03;;;4.22;;
20857;SDS011;10589;53.636;10.012;2023-08-12T10:22:49;6.50;;;5.90;;
20857;SDS011;10589;53.636;10.012;2023-08-12T10:25:15;8.48;;;6.78;;
20857;SDS011;10589;53.636;10.012;2023-08-12T10:27:43;7.15;;;5.75;;
20857;SDS011;10589;53.636;10.012;2023-08-12T10:30:09;7.05;;;5.63;;
20857;SDS011;10589;53.636;10.012;2023-08-12T10:32:37;5.78;;;5.18;;
20857;SDS011;10589;53.636;10.012;2023-08-12T10:35:04;9.68;;;5.40;;
20857;SDS011;10589;53.636;10.012;2023-08-12T10:37:31;8.20;;;5.55;;
20857;SDS011;10589;53.636;10.012;2023-08-12T10:39:59;8.13;;;5.30;;
20857;SDS011;10589;53.636;10.012;2023-08-12T10:42:45;6.20;;;4.20;;
20857;SDS011;10589;53.636;10.012;2023-08-12T10:45:12;7.53;;;5.40;;
20857;SDS011;10589;53.636;10.012;2023-08-12T10:47:43;7.20;;;5.10;;
20857;SDS011;10589;53.636;10.012;2023-08-12T10:50:20;7.60;;;4.80;;
20857;SDS011;10589;53.636;10.012;2023-08-12T10:52:47;6.05;;;5.22;;
20857;SDS011;10589;53.636;10.012;2023-08-12T10:55:27;8.23;;;6.20;;
20857;SDS011;10589;53.636;10.012;2023-08-12T10:57:53;7.45;;;6.72;;
20857;SDS011;10589;53.636;10.012;2023-08-12T11:00:22;7.43;;;5.07;;
20857;SDS011;10589;53.636;10.012;2023-08-12T11:02:51;7.45;;;5.38;;
20857;SDS011;10589;53.636;10.012;2023-08-12T11:05:18;7.80;;;5.57;;
20857;SDS011;10589;53.636;10.012;2023-08-12T11:07:59;7.18;;;5.53;;
20857;SDS011;10589;53.636;10.012;2023-08-12T11:10:29;6.03;;;4.65;;
20857;SDS011;10589;53.636;10.012;2023-08-12T11:12:57;6.50;;;5.20;;
20857;SDS011;10589;53.636;10.012;2023-08-12T11:17:59;7.70;;;5.03;;
20857;SDS011;10589;53.636;10.012;2023-08-12T11:20:34;6.43;;;5.07;;
20857;SDS011;10589;53.636;10.012;2023-08-12T11:23:01;7.03;;;4.70;;
20857;SDS011;10589;53.636;10.012;2023-08-12T11:25:28;10.15;;;5.35;;
20857;SDS011;10589;53.636;10.012;2023-08-12T11:27:55;5.80;;;4.53;;
20857;SDS011;10589;53.636;10.012;2023-08-12T11:30:21;5.65;;;4.40;;
20857;SDS011;10589;53.636;10.012;2023-08-12T11:32:48;6.00;;;5.40;;
20857;SDS011;10589;53.636;10.012;2023-08-12T11:35:15;5.95;;;4.80;;
20857;SDS011;10589;53.636;10.012;2023-08-12T11:37:45;8.70;;;6.03;;
20857;SDS011;10589;53.636;10.012;2023-08-12T11:40:12;6.60;;;4.90;;
20857;SDS011;10589;53.636;10.012;2023-08-12T11:42:40;5.97;;;5.03;;
20857;SDS011;10589;53.636;10.012;2023-08-12T11:45:09;5.70;;;5.20;;
20857;SDS011;10589;53.636;10.012;2023-08-12T11:47:36;5.50;;;3.92;;
20857;SDS011;10589;53.636;10.012;2023-08-12T11:50:04;5.35;;;4.85;;
20857;SDS011;10589;53.636;10.012;2023-08-12T11:52:30;7.38;;;4.65;;
20857;SDS011;10589;53.636;10.012;2023-08-12T11:54:56;6.10;;;4.40;;
20857;SDS011;10589;53.636;10.012;2023-08-12T11:57:22;6.55;;;5.30;;
20857;SDS011;10589;53.636;10.012;2023-08-12T11:59:48;7.47;;;5.03;;
20857;SDS011;10589;53.636;10.012;2023-08-12T12:02:15;6.18;;;4.45;;
20857;SDS011;10589;53.636;10.012;2023-08-12T12:04:41;6.82;;;5.68;;
20857;SDS011;10589;53.636;10.012;2023-08-12T12:07:17;7.97;;;5.75;;
20857;SDS011;10589;53.636;10.012;2023-08-12T12:09:51;8.45;;;6.00;;
20857;SDS011;10589;53.636;10.012;2023-08-12T12:12:17;9.52;;;6.60;;
20857;SDS011;10589;53.636;10.012;2023-08-12T12:14:47;10.02;;;6.50;;
20857;SDS011;10589;53.636;10.012;2023-08-12T12:17:14;7.10;;;6.07;;
20857;SDS011;10589;53.636;10.012;2023-08-12T12:19:40;6.93;;;4.85;;
20857;SDS011;10589;53.636;10.012;2023-08-12T12:22:06;7.95;;;6.72;;
20857;SDS011;10589;53.636;10.012;2023-08-12T12:24:38;11.70;;;7.28;;
20857;SDS011;10589;53.636;10.012;2023-08-12T12:27:11;10.02;;;8.25;;
20857;SDS011;10589;53.636;10.012;2023-08-12T12:29:37;10.13;;;9.00;;
20857;SDS011;10589;53.636;10.012;2023-08-12T12:32:02;11.10;;;8.75;;
20857;SDS011;10589;53.636;10.012;2023-08-12T12:34:29;8.98;;;8.07;;
20857;SDS011;10589;53.636;10.012;2023-08-12T12:36:55;11.52;;;8.68;;
20857;SDS011;10589;53.636;10.012;2023-08-12T12:39:20;7.70;;;6.68;;
20857;SDS011;10589;53.636;10.012;2023-08-12T12:41:48;12.80;;;9.77;;
20857;SDS011;10589;53.636;10.012;2023-08-12T12:44:14;12.75;;;9.50;;
20857;SDS011;10589;53.636;10.012;2023-08-12T12:46:40;10.95;;;8.82;;
20857;SDS011;10589;53.636;10.012;2023-08-12T12:49:05;12.15;;;9.45;;
20857;SDS011;10589;53.636;10.012;2023-08-12T12:51:31;8.02;;;6.88;;
20857;SDS011;10589;53.636;10.012;2023-08-12T12:53:57;9.07;;;8.15;;
20857;SDS011;10589;53.636;10.012;2023-08-12T12:56:22;8.32;;;5.38;;
20857;SDS011;10589;53.636;10.012;2023-08-12T12:58:48;4.97;;;4.47;;
20857;SDS011;10589;53.636;10.012;2023-08-12T13:01:14;7.97;;;5.60;;
20857;SDS011;10589;53.636;10.012;2023-08-12T13:03:39;7.50;;;5.60;;
20857;SDS011;10589;53.636;10.012;2023-08-12T13:06:05;5.43;;;4.57;;
20857;SDS011;10589;53.636;10.012;2023-08-12T13:08:30;5.68;;;5.13;;
20857;SDS011;10589;53.636;10.012;2023-08-12T13:10:56;5.70;;;4.97;;
20857;SDS011;10589;53.636;10.012;2023-08-12T13:13:22;6.05;;;5.45;;
20857;SDS011;10589;53.636;10.012;2023-08-12T13:15:48;7.05;;;5.10;;
20857;SDS011;10589;53.636;10.012;2023-08-12T13:18:14;6.65;;;5.20;;
20857;SDS011;10589;53.636;10.012;2023-08-12T13:20:40;5.35;;;4.85;;
20857;SDS011;10589;53.636;10.012;2023-08-12T13:23:05;7.32;;;5.75;;
20857;SDS011;10589;53.636;10.012;2023-08-12T13:25:32;8.25;;;7.45;;
20857;SDS011;10589;53.636;10.012;2023-08-12T13:27:59;7.45;;;6.20;;
20857;SDS011;10589;53.636;10.012;2023-08-12T13:30:28;8.35;;;7.55;;
20857;SDS011;10589;53.636;10.012;2023-08-12T13:32:54;9.55;;;7.40;;
20857;SDS011;10589;53.636;10.012;2023-08-12T13:35:21;8.00;;;5.57;;
20857;SDS011;10589;53.636;10.012;2023-08-12T13:37:47;4.75;;;4.25;;
20857;SDS011;10589;53.636;10.012;2023-08-12T13:40:13;5.47;;;4.85;;
20857;SDS011;10589;53.636;10.012;2023-08-12T13:42:40;4.95;;;4.45;;
20857;SDS011;10589;53.636;10.012;2023-08-12T13:45:11;5.78;;;5.13;;
20857;SDS011;10589;53.636;10.012;2023-08-12T13:47:37;10.95;;;6.93;;
20857;SDS011;10589;53.636;10.012;2023-08-12T13:50:02;5.47;;;4.75;;
20857;SDS011;10589;53.636;10.012;2023-08-12T13:52:28;9.18;;;7.05;;
20857;SDS011;10589;53.636;10.012;2023-08-12T13:54:54;9.75;;;7.22;;
20857;SDS011;10589;53.636;10.012;2023-08-12T13:57:19;8.07;;;7.20;;
20857;SDS011;10589;53.636;10.012;2023-08-12T13:59:45;8.52;;;6.60;;
20857;SDS011;10589;53.636;10.012;2023-08-12T14:02:12;5.50;;;5.00;;
20857;SDS011;10589;53.636;10.012;2023-08-12T14:04:38;6.20;;;5.25;;
20857;SDS011;10589;53.636;10.012;2023-08-12T14:07:04;6.22;;;5.15;;
20857;SDS011;10589;53.636;10.012;2023-08-12T14:09:30;7.32;;;5.60;;
20857;SDS011;10589;53.636;10.012;2023-08-12T14:11:56;5.00;;;3.80;;
20857;SDS011;10589;53.636;10.012;2023-08-12T14:14:22;8.77;;;6.43;;
20857;SDS011;10589;53.636;10.012;2023-08-12T14:16:48;10.63;;;8.02;;
20857;SDS011;10589;53.636;10.012;2023-08-12T14:19:13;11.25;;;7.65;;
20857;SDS011;10589;53.636;10.012;2023-08-12T14:21:41;9.25;;;7.85;;
20857;SDS011;10589;53.636;10.012;2023-08-12T14:24:08;7.03;;;6.32;;
20857;SDS011;10589;53.636;10.012;2023-08-12T14:26:34;7.07;;;6.38;;
20857;SDS011;10589;53.636;10.012;2023-08-12T14:28:59;8.25;;;6.75;;
20857;SDS011;10589;53.636;10.012;2023-08-12T14:31:25;8.60;;;6.80;;
20857;SDS011;10589;53.636;10.012;2023-08-12T14:33:51;8.98;;;7.53;;
20857;SDS011;10589;53.636;10.012;2023-08-12T14:36:16;7.20;;;5.63;;
20857;SDS011;10589;53.636;10.012;2023-08-12T14:38:42;6.72;;;6.03;;
20857;SDS011;10589;53.636;10.012;2023-08-12T14:41:08;8.20;;;7.22;;
20857;SDS011;10589;53.636;10.012;2023-08-12T14:43:33;5.25;;;4.65;;
20857;SDS011;10589;53.636;10.012;2023-08-12T14:45:59;7.43;;;5.45;;
20857;SDS011;10589;53.636;10.012;2023-08-12T14:48:24;6.75;;;5.47;;
20857;SDS011;10589;53.636;10.012;2023-08-12T14:50:50;8.10;;;6.90;;
20857;SDS011;10589;53.636;10.012;2023-08-12T14:53:16;6.72;;;6.13;;
20857;SDS011;10589;53.636;10.012;2023-08-12T14:55:41;8.38;;;7.53;;
20857;SDS011;10589;53.636;10.012;2023-08-12T14:58:07;10.15;;;7.75;;
20857;SDS011;10589;53.636;10.012;2023-08-12T15:00:32;9.00;;;7.45;;
20857;SDS011;10589;53.636;10.012;2023-08-12T15:02:58;6.82;;;6.13;;
20857;SDS011;10589;53.636;10.012;2023-08-12T15:05:24;9.05;;;7.32;;
20857;SDS011;10589;53.636;10.012;2023-08-12T15:07:50;6.40;;;5.80;;
20857;SDS011;10589;53.636;10.012;2023-08-12T15:10:16;7.93;;;7.13;;
20857;SDS011;10589;53.636;10.012;2023-08-12T15:12:41;8.10;;;7.30;;
20857;SDS011;10589;53.636;10.012;2023-08-12T15:15:07;10.13;;;7.95;;
20857;SDS011;10589;53.636;10.012;2023-08-12T15:17:33;10.20;;;8.77;;
20857;SDS011;10589;53.636;10.012;2023-08-12T15:19:58;10.27;;;9.27;;
20857;SDS011;10589;53.636;10.012;2023-08-12T15:22:24;9.90;;;8.90;;
20857;SDS011;10589;53.636;10.012;2023-08-12T15:24:49;11.50;;;9.93;;
20857;SDS011;10589;53.636;10.012;2023-08-12T15:27:17;8.50;;;7.32;;
20857;SDS011;10589;53.636;10.012;2023-08-12T15:29:43;6.78;;;6.07;;
20857;SDS011;10589;53.636;10.012;2023-08-12T15:32:09;7.20;;;6.55;;
20857;SDS011;10589;53.636;10.012;2023-08-12T15:34:34;11.90;;;9.70;;
20857;SDS011;10589;53.636;10.012;2023-08-12T15:37:00;10.02;;;7.72;;
20857;SDS011;10589;53.636;10.012;2023-08-12T15:39:25;11.32;;;9.98;;
20857;SDS011;10589;53.636;10.012;2023-08-12T15:41:51;12.15;;;9.90;;
20857;SDS011;10589;53.636;10.012;2023-08-12T15:44:16;12.13;;;9.75;;
20857;SDS011;10589;53.636;10.012;2023-08-12T15:46:42;8.85;;;7.70;;
20857;SDS011;10589;53.636;10.012;2023-08-12T15:49:08;9.00;;;8.10;;
20857;SDS011;10589;53.636;10.012;2023-08-12T15:51:39;9.55;;;8.65;;
20857;SDS011;10589;53.636;10.012;2023-08-12T15:54:06;7.05;;;6.13;;
20857;SDS011;10589;53.636;10.012;2023-08-12T15:56:32;8.32;;;7.53;;
20857;SDS011;10589;53.636;10.012;2023-08-12T15:59:00;8.77;;;7.75;;
20857;SDS011;10589;53.636;10.012;2023-08-12T16:01:26;9.60;;;8.27;;
20857;SDS011;10589;53.636;10.012;2023-08-12T16:03:52;9.00;;;8.10;;
20857;SDS011;10589;53.636;10.012;2023-08-12T16:06:17;8.82;;;7.28;;
20857;SDS011;10589;53.636;10.012;2023-08-12T16:08:43;8.85;;;7.90;;
20857;SDS011;10589;53.636;10.012;2023-08-12T16:11:09;10.48;;;8.70;;
20857;SDS011;10589;53.636;10.012;2023-08-12T16:13:34;9.65;;;8.60;;
20857;SDS011;10589;53.636;10.012;2023-08-12T16:16:00;8.27;;;7.05;;
20857;SDS011;10589;53.636;10.012;2023-08-12T16:18:25;9.23;;;8.23;;
20857;SDS011;10589;53.636;10.012;2023-08-12T16:20:51;9.20;;;8.05;;
20857;SDS011;10589;53.636;10.012;2023-08-12T16:23:17;9.82;;;8.63;;
20857;SDS011;10589;53.636;10.012;2023-08-12T16:25:43;8.93;;;6.95;;
20857;SDS011;10589;53.636;10.012;2023-08-12T16:28:08;7.78;;;6.97;;
20857;SDS011;10589;53.636;10.012;2023-08-12T16:30:34;9.70;;;7.72;;
20857;SDS011;10589;53.636;10.012;2023-08-12T16:33:00;8.73;;;7.72;;
20857;SDS011;10589;53.636;10.012;2023-08-12T16:35:25;10.43;;;8.75;;
20857;SDS011;10589;53.636;10.012;2023-08-12T16:37:51;9.73;;;7.55;;
20857;SDS011;10589;53.636;10.012;2023-08-12T16:40:18;6.78;;;5.10;;
20857;SDS011;10589;53.636;10.012;2023-08-12T16:42:44;3.97;;;3.58;;
20857;SDS011;10589;53.636;10.012;2023-08-12T16:45:11;3.20;;;2.25;;
20857;SDS011;10589;53.636;10.012;2023-08-12T16:47:37;3.75;;;1.40;;
20857;SDS011;10589;53.636;10.012;2023-08-12T16:50:03;2.22;;;1.52;;
20857;SDS011;10589;53.636;10.012;2023-08-12T16:52:29;1.85;;;1.30;;
20857;SDS011;10589;53.636;10.012;2023-08-12T16:54:55;2.42;;;1.20;;
20857;SDS011;10589;53.636;10.012;2023-08-12T16:57:21;2.15;;;1.00;;
20857;SDS011;10589;53.636;10.012;2023-08-12T16:59:46;1.90;;;1.30;;
20857;SDS011;10589;53.636;10.012;2023-08-12T17:02:13;1.30;;;1.20;;
20857;SDS011;10589;53.636;10.012;2023-08-12T17:04:38;1.50;;;1.30;;
20857;SDS011;10589;53.636;10.012;2023-08-12T17:07:05;1.50;;;1.40;;
20857;SDS011;10589;53.636;10.012;2023-08-12T17:09:30;2.88;;;1.52;;
20857;SDS011;10589;53.636;10.012;2023-08-12T17:11:58;2.20;;;1.88;;
20857;SDS011;10589;53.636;10.012;2023-08-12T17:14:27;2.00;;;1.67;;
20857;SDS011;10589;53.636;10.012;2023-08-12T17:16:53;3.08;;;1.90;;
20857;SDS011;10589;53.636;10.012;2023-08-12T17:19:18;2.15;;;1.67;;
20857;SDS011;10589;53.636;10.012;2023-08-12T17:21:44;2.20;;;1.40;;
20857;SDS011;10589;53.636;10.012;2023-08-12T17:24:10;1.92;;;1.25;;
20857;SDS011;10589;53.636;10.012;2023-08-12T17:26:35;1.05;;;0.90;;
20857;SDS011;10589;53.636;10.012;2023-08-12T17:29:01;1.98;;;1.17;;
20857;SDS011;10589;53.636;10.012;2023-08-12T17:31:26;1.52;;;1.20;;
20857;SDS011;10589;53.636;10.012;2023-08-12T17:33:52;4.72;;;1.55;;
20857;SDS011;10589;53.636;10.012;2023-08-12T17:36:18;1.63;;;1.52;;
20857;SDS011;10589;53.636;10.012;2023-08-12T17:38:43;2.10;;;1.70;;
20857;SDS011;10589;53.636;10.012;2023-08-12T17:41:09;2.85;;;1.80;;
20857;SDS011;10589;53.636;10.012;2023-08-12T17:43:35;2.97;;;2.30;;
20857;SDS011;10589;53.636;10.012;2023-08-12T17:46:00;4.38;;;1.90;;
20857;SDS011;10589;53.636;10.012;2023-08-12T17:48:26;2.38;;;1.80;;
20857;SDS011;10589;53.636;10.012;2023-08-12T17:50:52;5.30;;;1.92;;
20857;SDS011;10589;53.636;10.012;2023-08-12T17:53:17;2.85;;;1.80;;
20857;SDS011;10589;53.636;10.012;2023-08-12T17:55:43;4.85;;;2.05;;
20857;SDS011;10589;53.636;10.012;2023-08-12T17:58:09;4.22;;;2.00;;
20857;SDS011;10589;53.636;10.012;2023-08-12T18:00:34;2.50;;;2.20;;
20857;SDS011;10589;53.636;10.012;2023-08-12T18:03:00;2.35;;;2.13;;
20857;SDS011;10589;53.636;10.012;2023-08-12T18:05:25;2.75;;;1.80;;
20857;SDS011;10589;53.636;10.012;2023-08-12T18:07:51;2.92;;;2.03;;
20857;SDS011;10589;53.636;10.012;2023-08-12T18:10:17;2.05;;;1.88;;
20857;SDS011;10589;53.636;10.012;2023-08-12T18:12:43;3.10;;;2.00;;
20857;SDS011;10589;53.636;10.012;2023-08-12T18:15:09;2.40;;;2.13;;